createdAt,value
2022-09-01T00:04:21.016Z,16.56
2022-09-01T00:09:42.531Z,16.52
2022-09-01T00:15:07.194Z,16.47
2022-09-01T00:20:29.234Z,16.37
2022-09-01T00:25:50.837Z,16.25
2022-09-01T00:31:15.096Z,16.21
2022-09-01T00:36:36.955Z,16.15
2022-09-01T00:41:59.516Z,16.10
2022-09-01T00:47:21.261Z,16.03
2022-09-01T00:52:53.074Z,15.98
2022-09-01T00:58:19.638Z,15.94
2022-09-01T01:03:45.655Z,15.88
2022-09-01T01:09:07.051Z,15.77
2022-09-01T01:14:32.502Z,15.61
2022-09-01T01:20:15.796Z,15.47
2022-09-01T01:25:42.181Z,15.28
2022-09-01T01:31:19.575Z,15.19
2022-09-01T01:36:41.975Z,15.18
2022-09-01T01:42:09.604Z,15.06
2022-09-01T01:47:31.198Z,14.98
2022-09-01T01:52:58.095Z,14.84
2022-09-01T01:58:25.653Z,14.80
2022-09-01T02:03:47.210Z,14.73
2022-09-01T02:09:09.019Z,14.65
2022-09-01T02:14:30.379Z,14.52
2022-09-01T02:19:56.930Z,14.45
2022-09-01T02:25:20.817Z,14.34
2022-09-01T02:30:45.771Z,14.28
2022-09-01T02:36:12.729Z,14.23
2022-09-01T02:41:34.785Z,14.19
2022-09-01T02:46:59.092Z,14.16
2022-09-01T02:52:21.158Z,14.11
2022-09-01T02:57:42.702Z,14.10
2022-09-01T03:03:04.740Z,14.10
2022-09-01T03:08:27.882Z,14.00
2022-09-01T03:13:49.191Z,13.92
2022-09-01T03:19:12.277Z,13.85
2022-09-01T03:24:39.389Z,13.85
2022-09-01T03:30:01.422Z,13.96
2022-09-01T03:35:26.055Z,13.94
2022-09-01T03:40:49.590Z,13.82
2022-09-01T03:46:12.595Z,13.76
2022-09-01T03:51:35.170Z,13.81
2022-09-01T03:56:58.303Z,13.87
2022-09-01T04:02:20.636Z,13.93
2022-09-01T04:07:47.226Z,14.02
2022-09-01T04:13:11.892Z,14.15
2022-09-01T04:18:34.735Z,14.32
2022-09-01T04:24:05.404Z,14.41
2022-09-01T04:29:28.604Z,14.50
2022-09-01T04:34:51.413Z,14.59
2022-09-01T04:40:14.556Z,14.60
2022-09-01T04:45:37.633Z,14.62
2022-09-01T04:50:59.066Z,14.84
2022-09-01T04:56:23.310Z,14.87
2022-09-01T05:02:01.009Z,14.93
2022-09-01T05:07:23.813Z,15.11
2022-09-01T05:12:46.336Z,15.14
2022-09-01T05:18:10.307Z,15.06
2022-09-01T05:23:32.895Z,14.99
2022-09-01T05:29:04.134Z,15.06
2022-09-01T05:34:29.979Z,15.24
2022-09-01T05:39:52.626Z,15.39
2022-09-01T05:45:14.488Z,15.66
2022-09-01T05:50:40.857Z,16.78
2022-09-01T05:56:08.075Z,22.70
2022-09-01T06:01:33.618Z,26.58
2022-09-01T06:07:07.186Z,27.91
2022-09-01T06:12:31.596Z,30.14
2022-09-01T06:17:52.955Z,32.31
2022-09-01T06:23:19.108Z,33.37
2022-09-01T06:28:41.281Z,34.20
2022-09-01T06:34:04.145Z,36.18
2022-09-01T06:39:26.743Z,37.73
2022-09-01T06:44:49.484Z,38.57
2022-09-01T06:56:05.106Z,40.11
2022-09-01T07:01:28.025Z,40.70
2022-09-01T07:07:00.421Z,40.79
2022-09-01T07:13:11.815Z,40.80
2022-09-01T07:18:34.105Z,38.20
2022-09-01T07:24:10.625Z,38.12
2022-09-01T07:29:36.255Z,39.23
2022-09-01T07:34:57.977Z,38.16
2022-09-01T07:46:43.058Z,40.45
2022-09-01T07:52:10.409Z,38.57
2022-09-01T07:57:32.713Z,38.82
2022-09-01T08:02:57.340Z,41.25
2022-09-01T08:08:24.877Z,42.05
2022-09-01T08:13:51.996Z,40.98
2022-09-01T08:19:16.982Z,39.25
2022-09-01T08:25:08.697Z,40.76
2022-09-01T08:30:32.706Z,40.35
2022-09-01T08:35:55.519Z,38.33
2022-09-01T08:42:00.293Z,38.20
2022-09-01T08:47:43.690Z,38.68
2022-09-01T08:53:21.541Z,35.69
2022-09-01T08:58:43.357Z,30.15
2022-09-01T09:04:51.321Z,26.42
2022-09-01T09:10:18.679Z,24.86
2022-09-01T09:15:49.999Z,23.25
2022-09-01T09:21:26.192Z,22.03
2022-09-01T09:26:59.236Z,21.17
2022-09-01T09:32:24.014Z,20.41
2022-09-01T09:37:49.790Z,20.32
2022-09-01T09:43:16.159Z,20.20
2022-09-01T09:48:38.338Z,20.32
2022-09-01T09:54:26.366Z,20.43
2022-09-01T09:59:59.243Z,20.67
2022-09-01T10:05:38.786Z,20.86
2022-09-01T10:11:01.031Z,20.81
2022-09-01T10:16:35.341Z,20.55
2022-09-01T10:21:56.931Z,20.95
2022-09-01T10:27:27.517Z,21.01
2022-09-01T10:33:05.402Z,20.99
2022-09-01T10:38:30.215Z,21.20
2022-09-01T10:43:52.450Z,21.13
2022-09-01T10:49:29.647Z,21.25
2022-09-01T10:54:56.039Z,21.23
2022-09-01T11:00:36.219Z,21.50
2022-09-01T11:06:15.132Z,21.90
2022-09-01T11:11:56.475Z,21.96
2022-09-01T11:17:28.054Z,22.37
2022-09-01T11:23:12.580Z,22.28
2022-09-01T11:35:46.290Z,22.69
2022-09-01T11:41:07.914Z,22.63
2022-09-01T11:46:33.278Z,22.99
2022-09-01T11:51:55.660Z,22.75
2022-09-01T11:57:26.950Z,22.46
2022-09-01T12:02:51.096Z,22.16
2022-09-01T12:08:15.702Z,22.43
2022-09-01T12:13:37.782Z,22.54
2022-09-01T12:18:59.653Z,22.69
2022-09-01T12:24:23.653Z,22.86
2022-09-01T12:29:46.290Z,22.89
2022-09-01T12:35:22.317Z,22.71
2022-09-01T12:40:45.728Z,22.67
2022-09-01T12:46:10.764Z,22.61
2022-09-01T12:51:32.272Z,22.19
2022-09-01T12:56:53.982Z,22.25
2022-09-01T13:02:37.891Z,22.14
2022-09-01T13:08:05.229Z,22.40
2022-09-01T13:13:29.916Z,22.17
2022-09-01T13:24:33.132Z,22.77
2022-09-01T13:29:54.714Z,22.28
2022-09-01T13:35:20.414Z,22.09
2022-09-01T13:40:43.478Z,22.13
2022-09-01T13:46:05.197Z,22.29
2022-09-01T13:51:27.745Z,22.25
2022-09-01T13:56:49.141Z,22.07
2022-09-01T14:02:11.279Z,21.91
2022-09-01T14:07:33.222Z,21.64
2022-09-01T14:12:54.738Z,21.08
2022-09-01T14:18:17.472Z,20.60
2022-09-01T14:23:39.182Z,20.33
2022-09-01T14:29:02.662Z,20.23
2022-09-01T14:34:24.800Z,20.25
2022-09-01T14:39:53.813Z,20.20
2022-09-01T14:45:18.769Z,20.20
2022-09-01T14:50:46.738Z,19.90
2022-09-01T14:56:08.297Z,19.73
2022-09-01T15:01:34.643Z,19.62
2022-09-01T15:06:56.719Z,19.54
2022-09-01T15:12:18.014Z,19.26
2022-09-01T15:17:42.247Z,18.95
2022-09-01T15:23:06.091Z,18.76
2022-09-01T15:28:27.854Z,18.64
2022-09-01T15:33:49.313Z,18.51
2022-09-01T15:39:11.666Z,18.34
2022-09-01T15:44:33.706Z,18.18
2022-09-01T15:49:55.334Z,18.02
2022-09-01T15:55:19.678Z,17.80
2022-09-01T16:00:42.553Z,17.60
2022-09-01T16:06:04.121Z,17.48
2022-09-01T16:11:26.395Z,17.43
2022-09-01T16:16:47.856Z,17.28
2022-09-01T16:22:23.516Z,17.22
2022-09-01T16:27:46.135Z,17.10
2022-09-01T16:33:20.135Z,16.97
2022-09-01T16:38:55.531Z,16.84
2022-09-01T16:44:22.855Z,16.68
2022-09-01T16:50:04.064Z,16.51
2022-09-01T16:55:57.698Z,16.39
2022-09-01T17:01:36.964Z,16.30
2022-09-01T17:07:26.409Z,16.24
2022-09-01T17:12:56.949Z,16.20
2022-09-01T17:18:30.510Z,16.12
2022-09-01T17:24:12.683Z,16.14
2022-09-01T17:29:45.128Z,16.14
2022-09-01T17:35:37.690Z,16.10
2022-09-01T17:41:29.351Z,16.00
2022-09-01T17:47:02.010Z,15.99
2022-09-01T17:52:40.243Z,15.89
2022-09-01T17:58:19.805Z,15.79
2022-09-01T18:04:11.842Z,15.68
2022-09-01T18:09:42.842Z,15.63
2022-09-01T18:15:10.333Z,15.61
2022-09-01T18:20:43.295Z,15.59
2022-09-01T18:26:33.334Z,15.64
2022-09-01T18:32:07.206Z,15.67
2022-09-01T18:37:58.362Z,15.76
2022-09-01T18:43:31.406Z,15.78
2022-09-01T18:49:07.079Z,15.80
2022-09-01T18:54:38.555Z,15.74
2022-09-01T19:00:29.659Z,15.75
2022-09-01T19:06:05.960Z,15.72
2022-09-01T19:11:35.149Z,15.67
2022-09-01T19:17:24.757Z,15.58
2022-09-01T19:22:46.123Z,15.50
2022-09-01T19:28:33.319Z,15.35
2022-09-01T19:34:00.618Z,15.29
2022-09-01T19:39:35.400Z,15.20
2022-09-01T19:45:22.486Z,15.13
2022-09-01T19:51:03.495Z,15.00
2022-09-01T19:56:44.855Z,14.91
2022-09-01T20:02:35.188Z,14.83
2022-09-01T20:08:19.750Z,14.77
2022-09-01T20:13:47.026Z,14.76
2022-09-01T20:19:14.413Z,14.73
2022-09-01T20:24:38.684Z,14.76
2022-09-01T20:30:10.022Z,14.67
2022-09-01T20:35:59.763Z,14.57
2022-09-01T20:41:29.073Z,14.52
2022-09-01T20:46:52.032Z,14.45
2022-09-01T20:52:36.563Z,14.32
2022-09-01T20:58:25.193Z,14.24
2022-09-01T21:03:57.174Z,14.21
2022-09-01T21:09:47.108Z,14.04
2022-09-01T21:15:19.546Z,13.92
2022-09-01T21:21:00.682Z,13.80
2022-09-01T21:26:22.621Z,13.76
2022-09-01T21:31:44.197Z,13.74
2022-09-01T21:37:05.868Z,13.68
2022-09-01T21:42:36.073Z,13.64
2022-09-01T21:47:58.010Z,13.54
2022-09-01T21:53:19.938Z,13.49
2022-09-01T21:58:41.326Z,13.40
2022-09-01T22:04:04.786Z,13.31
2022-09-01T22:09:26.058Z,13.20
2022-09-01T22:14:47.563Z,13.06
2022-09-01T22:20:11.672Z,12.89
2022-09-01T22:25:34.115Z,12.71
2022-09-01T22:30:55.734Z,12.58
2022-09-01T22:36:28.417Z,12.41
2022-09-01T22:41:50.189Z,12.37
2022-09-01T22:47:12.066Z,12.29
2022-09-01T22:52:35.793Z,12.25
2022-09-01T22:57:57.118Z,12.15
2022-09-01T23:03:21.221Z,12.16
2022-09-01T23:08:44.498Z,12.09
2022-09-01T23:14:06.396Z,12.06
2022-09-01T23:19:27.934Z,12.01
2022-09-01T23:24:49.699Z,11.90
2022-09-01T23:30:14.128Z,11.75
2022-09-01T23:35:35.797Z,11.67
2022-09-01T23:40:58.752Z,11.56
2022-09-01T23:46:23.150Z,11.45
2022-09-01T23:51:46.734Z,11.38
2022-09-01T23:57:09.195Z,11.30
